Time;durP1;ratioP1;P1;durP2;ratioP2;P2;SDS_P1;SDS_P2;PMS_P1;PMS_P2;Temp;Humidity;BMP_temperature;BMP_pressure;BME280_temperature;BME280_humidity;BME280_pressure;Samples;Min_cycle;Max_cycle;Signal;HPM_P1;HPM_P2
2022/07/04 00:01:04;;;;;;;5.25;1.50;;;15.60;99.90;;;;;;5052466;28;20033;-55
2022/07/04 00:03:30;;;;;;;5.78;1.88;;;15.70;99.90;;;;;;5052086;28;20036;-60
2022/07/04 00:05:56;;;;;;;7.45;1.83;;;15.80;99.90;;;;;;5051815;28;20098;-54
2022/07/04 00:08:21;;;;;;;6.55;1.95;;;15.70;99.90;;;;;;5052183;28;20044;-54
2022/07/04 00:10:47;;;;;;;6.60;1.85;;;15.50;99.90;;;;;;5051714;28;20029;-55
2022/07/04 00:13:13;;;;;;;6.32;1.90;;;15.30;99.90;;;;;;5051938;28;20021;-54
2022/07/04 00:15:38;;;;;;;5.72;1.80;;;15.20;99.90;;;;;;5051814;28;20075;-54
2022/07/04 00:18:04;;;;;;;5.47;1.65;;;15.10;99.90;;;;;;5050729;28;20028;-55
2022/07/04 00:20:30;;;;;;;9.30;1.90;;;15.00;99.90;;;;;;5052161;28;20029;-54
2022/07/04 00:22:55;;;;;;;3.45;1.65;;;15.10;99.90;;;;;;5051865;28;20507;-54
2022/07/04 00:25:21;;;;;;;5.65;1.75;;;15.30;99.90;;;;;;5051742;28;20477;-54
2022/07/04 00:27:46;;;;;;;7.15;2.10;;;15.40;99.90;;;;;;5052359;28;20406;-55
2022/07/04 00:30:12;;;;;;;4.25;1.52;;;15.30;99.90;;;;;;5050182;28;20120;-54
2022/07/04 00:32:38;;;;;;;4.75;1.95;;;15.10;99.90;;;;;;5051556;28;20040;-54
2022/07/04 00:35:05;;;;;;;8.93;1.83;;;15.00;99.90;;;;;;5051945;28;20036;-55
2022/07/04 00:37:31;;;;;;;7.35;2.15;;;14.90;99.90;;;;;;5050511;28;20029;-55
2022/07/04 00:39:56;;;;;;;7.22;2.05;;;14.90;99.90;;;;;;5051773;28;20032;-55
2022/07/04 00:42:22;;;;;;;12.32;2.15;;;14.80;99.90;;;;;;5051476;28;20037;-55
2022/07/04 00:44:48;;;;;;;3.75;2.20;;;14.80;99.90;;;;;;5050905;28;20394;-55
2022/07/04 00:47:13;;;;;;;5.40;2.15;;;14.80;99.90;;;;;;5050950;28;20086;-56
2022/07/04 00:49:40;;;;;;;5.43;2.00;;;14.80;99.90;;;;;;5051383;28;20512;-55
2022/07/04 00:52:07;;;;;;;7.53;2.53;;;14.80;99.90;;;;;;5051346;28;20533;-55
2022/07/04 00:54:32;;;;;;;8.23;2.03;;;14.80;99.90;;;;;;5051036;28;20508;-55
2022/07/04 00:57:00;;;;;;;9.27;2.20;;;14.70;99.90;;;;;;5051632;28;20021;-54
2022/07/04 00:59:27;;;;;;;7.80;2.33;;;14.50;99.90;;;;;;5052333;28;20401;-54
2022/07/04 01:01:52;;;;;;;5.28;1.80;;;14.40;99.90;;;;;;5049949;28;20389;-54
2022/07/04 01:04:18;;;;;;;4.15;2.08;;;14.30;99.90;;;;;;5051363;28;20029;-53
2022/07/04 01:06:47;;;;;;;5.53;2.03;;;14.20;99.90;;;;;;5051383;28;20025;-54
2022/07/04 01:09:12;;;;;;;11.05;2.20;;;14.10;99.90;;;;;;5051232;28;20031;-53
2022/07/04 01:11:38;;;;;;;6.75;2.78;;;13.90;99.90;;;;;;5051309;28;20389;-53
2022/07/04 01:14:06;;;;;;;6.30;2.30;;;13.90;99.90;;;;;;5051056;28;20044;-53
2022/07/04 01:16:32;;;;;;;5.68;1.92;;;13.90;99.90;;;;;;5050828;28;20436;-54
2022/07/04 01:18:57;;;;;;;7.22;2.25;;;13.90;99.90;;;;;;5051169;28;20036;-54
2022/07/04 01:21:23;;;;;;;7.25;2.22;;;13.90;99.90;;;;;;5051484;28;20025;-54
2022/07/04 01:23:48;;;;;;;3.17;1.98;;;13.80;99.90;;;;;;5051019;28;20512;-54
2022/07/04 01:26:14;;;;;;;4.70;1.85;;;13.80;99.90;;;;;;5050924;28;20041;-54
2022/07/04 01:28:40;;;;;;;6.30;2.28;;;13.60;99.90;;;;;;5049776;28;20029;-54
2022/07/04 01:31:06;;;;;;;3.50;2.00;;;13.60;99.90;;;;;;5051280;28;20069;-55
2022/07/04 01:33:33;;;;;;;4.68;2.15;;;13.60;99.90;;;;;;5049423;28;20082;-53
2022/07/04 01:35:59;;;;;;;11.10;2.33;;;13.40;99.90;;;;;;5051164;28;20029;-53
2022/07/04 01:38:25;;;;;;;9.50;2.75;;;13.30;99.90;;;;;;5051151;28;20104;-53
2022/07/04 01:40:50;;;;;;;5.32;2.10;;;13.20;99.90;;;;;;5050728;28;20120;-53
2022/07/04 01:43:16;;;;;;;9.07;2.72;;;13.10;99.90;;;;;;5050891;28;20056;-53
2022/07/04 01:45:42;;;;;;;4.05;2.60;;;13.10;99.90;;;;;;5050999;28;20420;-53
2022/07/04 01:48:10;;;;;;;6.75;2.50;;;13.10;99.90;;;;;;5050593;28;20017;-53
2022/07/04 01:50:36;;;;;;;5.25;2.63;;;13.10;99.90;;;;;;5050485;28;20099;-53
2022/07/04 01:53:02;;;;;;;7.57;2.53;;;13.10;99.90;;;;;;5050633;28;20140;-53
2022/07/04 01:55:29;;;;;;;7.20;2.30;;;13.20;99.90;;;;;;5050741;28;20056;-53
2022/07/04 01:57:55;;;;;;;6.82;2.50;;;13.10;99.90;;;;;;5052496;28;20071;-53
2022/07/04 02:03:05;;;;;;;4.82;2.15;;;13.30;99.90;;;;;;5054752;28;20040;-53
2022/07/04 02:05:30;;;;;;;4.45;2.40;;;13.40;99.90;;;;;;5053880;28;20150;-53
2022/07/04 02:07:56;;;;;;;2.72;2.00;;;13.30;99.90;;;;;;5054303;28;20037;-53
2022/07/04 02:10:22;;;;;;;5.82;2.20;;;13.20;99.90;;;;;;5053997;28;20028;-53
2022/07/04 02:13:03;;;;;;;5.47;2.17;;;13.10;99.90;;;;;;5053813;28;20025;-53
2022/07/04 02:15:40;;;;;;;7.05;2.28;;;13.00;99.90;;;;;;5052944;28;20029;-53
2022/07/04 02:18:07;;;;;;;5.13;2.53;;;12.80;99.90;;;;;;5054208;28;20555;-53
2022/07/04 02:20:34;;;;;;;3.75;2.55;;;12.70;99.90;;;;;;5054109;28;20025;-52
2022/07/04 02:23:01;;;;;;;7.05;2.80;;;12.70;99.90;;;;;;5053732;28;20040;-53
2022/07/04 02:25:27;;;;;;;4.55;2.90;;;12.60;99.90;;;;;;5054160;28;20388;-52
2022/07/04 02:27:53;;;;;;;6.97;2.55;;;12.60;99.90;;;;;;5053956;28;20104;-53
2022/07/04 02:30:19;;;;;;;7.70;2.90;;;12.60;99.90;;;;;;5053197;28;20036;-52
2022/07/04 02:32:45;;;;;;;4.25;2.63;;;12.50;99.90;;;;;;5053940;28;20088;-52
2022/07/04 02:35:10;;;;;;;8.82;3.05;;;12.50;99.90;;;;;;5053810;28;20035;-53
2022/07/04 02:37:36;;;;;;;5.70;2.72;;;12.40;99.90;;;;;;5054242;28;20100;-57
2022/07/04 02:40:04;;;;;;;8.20;2.67;;;12.30;99.90;;;;;;5052829;28;20497;-52
2022/07/04 02:42:30;;;;;;;8.75;2.72;;;12.30;99.90;;;;;;5052364;28;20082;-53
2022/07/04 02:44:56;;;;;;;9.50;3.00;;;12.20;99.90;;;;;;5053548;28;20036;-52
2022/07/04 02:47:22;;;;;;;6.65;2.60;;;12.20;99.90;;;;;;5053445;28;20021;-53
2022/07/04 02:49:47;;;;;;;3.53;2.72;;;12.10;99.90;;;;;;5053543;28;20054;-53
2022/07/04 02:52:13;;;;;;;7.78;3.30;;;12.20;99.90;;;;;;5053376;28;20053;-52
2022/07/04 02:54:39;;;;;;;5.45;3.25;;;12.20;99.90;;;;;;5053299;28;20025;-53
2022/07/04 02:57:05;;;;;;;9.70;3.38;;;12.20;99.90;;;;;;5053723;28;20029;-52
2022/07/04 02:59:31;;;;;;;6.43;3.00;;;12.30;99.90;;;;;;5053530;28;20045;-53
2022/07/04 03:01:56;;;;;;;5.68;3.10;;;12.30;99.90;;;;;;5053724;28;20071;-53
2022/07/04 03:04:22;;;;;;;10.07;3.17;;;12.40;99.90;;;;;;5053188;28;20463;-53
2022/07/04 03:06:48;;;;;;;5.90;3.20;;;12.40;99.90;;;;;;5053574;28;20029;-53
2022/07/04 03:09:13;;;;;;;6.20;2.75;;;12.40;99.90;;;;;;5051637;28;20066;-54
2022/07/04 03:11:39;;;;;;;6.88;3.03;;;12.40;99.90;;;;;;5053422;28;20082;-53
2022/07/04 03:14:04;;;;;;;6.00;2.50;;;12.50;99.90;;;;;;5053074;28;20071;-53
2022/07/04 03:16:30;;;;;;;6.10;3.22;;;12.40;99.90;;;;;;5051471;28;20390;-53
2022/07/04 03:18:56;;;;;;;5.70;3.10;;;12.40;99.90;;;;;;5053346;28;20456;-53
2022/07/04 03:21:21;;;;;;;9.90;2.90;;;12.40;99.90;;;;;;5053110;28;20060;-53
2022/07/04 03:23:57;;;;;;;8.65;2.92;;;12.50;99.90;;;;;;5052998;28;20052;-53
2022/07/04 03:26:26;;;;;;;6.30;2.75;;;12.60;99.90;;;;;;5053007;28;20085;-53
2022/07/04 03:28:52;;;;;;;5.28;2.85;;;12.70;99.90;;;;;;5053128;28;20029;-53
2022/07/04 03:31:18;;;;;;;5.35;2.60;;;12.70;99.90;;;;;;5052872;28;20378;-53
2022/07/04 03:33:43;;;;;;;6.20;2.63;;;12.70;99.90;;;;;;5052793;28;20032;-53
2022/07/04 03:36:09;;;;;;;4.68;2.42;;;12.70;99.90;;;;;;5051305;28;20025;-53
2022/07/04 03:38:35;;;;;;;7.43;3.22;;;12.70;99.90;;;;;;5052571;28;20155;-54
2022/07/04 03:41:01;;;;;;;8.35;2.67;;;12.90;99.90;;;;;;5052460;28;20033;-53
2022/07/04 03:43:26;;;;;;;6.72;2.30;;;12.90;99.90;;;;;;5052511;28;20040;-53
2022/07/04 03:45:52;;;;;;;6.80;2.67;;;13.00;99.90;;;;;;5052317;28;20485;-53
2022/07/04 03:48:18;;;;;;;4.68;1.88;;;13.00;99.90;;;;;;5052454;28;20470;-53
2022/07/04 03:50:43;;;;;;;11.77;2.38;;;13.00;99.90;;;;;;5052033;28;20025;-54
2022/07/04 03:53:09;;;;;;;7.45;2.50;;;13.00;99.90;;;;;;5052336;28;20509;-53
2022/07/04 03:55:34;;;;;;;5.13;2.75;;;13.10;99.90;;;;;;5052415;28;20109;-58
2022/07/04 03:58:01;;;;;;;8.43;3.13;;;13.10;99.90;;;;;;5051016;28;20051;-53
2022/07/04 04:00:26;;;;;;;5.65;2.92;;;13.20;99.90;;;;;;5052417;28;20025;-53
2022/07/04 04:02:52;;;;;;;9.52;3.30;;;13.20;99.90;;;;;;5051969;28;20028;-53
2022/07/04 04:05:27;;;;;;;9.15;3.10;;;13.10;99.90;;;;;;5052205;28;20024;-53
2022/07/04 04:07:57;;;;;;;6.53;3.15;;;13.20;99.90;;;;;;5052529;28;20021;-53
2022/07/04 04:10:24;;;;;;;9.32;3.13;;;13.10;99.90;;;;;;5052224;28;20021;-53
2022/07/04 04:12:49;;;;;;;5.03;2.83;;;13.00;99.90;;;;;;5051756;28;20056;-53
2022/07/04 04:15:16;;;;;;;6.60;3.38;;;13.00;99.90;;;;;;5051833;28;20064;-53
2022/07/04 04:17:42;;;;;;;7.93;3.33;;;12.90;99.90;;;;;;5052066;28;20033;-53
2022/07/04 04:20:10;;;;;;;7.82;3.55;;;12.90;99.90;;;;;;5051037;28;20036;-53
2022/07/04 04:22:36;;;;;;;9.48;3.97;;;12.90;99.90;;;;;;5051800;28;20541;-53
2022/07/04 04:25:02;;;;;;;8.95;3.45;;;12.80;99.90;;;;;;5052254;28;20113;-53
2022/07/04 04:27:28;;;;;;;7.45;2.88;;;12.80;99.90;;;;;;5051755;28;20497;-53
2022/07/04 04:29:53;;;;;;;9.77;3.20;;;12.80;99.90;;;;;;5051809;28;20033;-53
2022/07/04 04:32:19;;;;;;;8.75;3.67;;;12.80;99.90;;;;;;5051639;28;20028;-54
2022/07/04 04:34:45;;;;;;;6.57;3.20;;;12.70;99.90;;;;;;5051659;28;20033;-53
2022/07/04 04:37:10;;;;;;;10.80;3.40;;;12.80;99.90;;;;;;5051595;28;20017;-53
2022/07/04 04:39:36;;;;;;;7.93;3.63;;;12.90;99.90;;;;;;5050432;28;20037;-53
2022/07/04 04:42:02;;;;;;;7.97;3.20;;;12.90;99.90;;;;;;5051374;28;20028;-53
2022/07/04 04:44:27;;;;;;;6.07;3.03;;;13.00;99.90;;;;;;5051514;28;20043;-54
2022/07/04 04:46:53;;;;;;;9.40;3.22;;;13.00;99.90;;;;;;5051481;28;20466;-53
2022/07/04 04:49:19;;;;;;;10.10;3.05;;;13.10;99.90;;;;;;5051600;28;20064;-53
2022/07/04 04:51:44;;;;;;;11.45;3.28;;;13.10;99.90;;;;;;5051052;28;20187;-54
2022/07/04 04:54:10;;;;;;;7.95;2.83;;;13.20;99.90;;;;;;5051096;28;20045;-54
2022/07/04 04:56:36;;;;;;;8.32;3.22;;;13.30;99.90;;;;;;5050863;28;20375;-54
2022/07/04 04:59:01;;;;;;;14.18;3.83;;;13.40;99.90;;;;;;5050468;28;20075;-58
2022/07/04 05:01:27;;;;;;;10.15;3.17;;;13.30;99.90;;;;;;5051264;28;20048;-53
2022/07/04 05:03:53;;;;;;;6.07;2.50;;;13.30;99.90;;;;;;5051231;28;20035;-53
2022/07/04 05:06:19;;;;;;;7.03;3.30;;;13.40;99.90;;;;;;5051194;28;20059;-53
2022/07/04 05:08:45;;;;;;;6.60;3.17;;;13.40;99.90;;;;;;5051015;28;20025;-53
2022/07/04 05:11:11;;;;;;;6.95;2.95;;;13.50;99.90;;;;;;5051209;28;20025;-54
2022/07/04 05:13:36;;;;;;;7.22;3.25;;;13.60;99.90;;;;;;5051034;28;20028;-53
2022/07/04 05:16:02;;;;;;;8.23;3.35;;;13.60;99.90;;;;;;5051400;28;20033;-53
2022/07/04 05:18:28;;;;;;;8.65;3.55;;;13.50;99.90;;;;;;5051386;28;20028;-52
2022/07/04 05:20:54;;;;;;;9.73;3.38;;;13.60;99.90;;;;;;5050928;28;20041;-53
2022/07/04 05:23:20;;;;;;;6.68;3.25;;;13.60;99.90;;;;;;5051132;28;20025;-53
2022/07/04 05:25:46;;;;;;;8.60;3.03;;;13.70;99.90;;;;;;5050777;28;20582;-54
2022/07/04 05:28:12;;;;;;;8.48;3.63;;;13.80;99.90;;;;;;5051113;28;20029;-54
2022/07/04 05:30:38;;;;;;;8.18;2.90;;;13.90;99.90;;;;;;5050980;28;20155;-53
2022/07/04 05:33:03;;;;;;;9.10;3.22;;;13.90;99.90;;;;;;5053294;28;20025;-53
2022/07/04 05:35:30;;;;;;;10.05;3.40;;;13.90;99.90;;;;;;5055503;28;20032;-53
2022/07/04 05:37:55;;;;;;;9.55;3.45;;;14.00;99.90;;;;;;5055244;28;20021;-54
2022/07/04 05:40:21;;;;;;;12.70;3.75;;;14.10;99.90;;;;;;5055025;28;20379;-53
2022/07/04 05:42:48;;;;;;;8.13;3.20;;;14.10;99.90;;;;;;5054690;28;20021;-53
2022/07/04 05:45:14;;;;;;;12.70;3.28;;;14.20;99.90;;;;;;5054168;28;20032;-54
2022/07/04 05:47:40;;;;;;;10.10;3.20;;;14.30;99.90;;;;;;5054860;28;20021;-53
2022/07/04 05:50:06;;;;;;;9.57;2.92;;;14.30;99.90;;;;;;5054782;28;20028;-53
2022/07/04 05:52:32;;;;;;;13.32;3.67;;;14.30;99.90;;;;;;5054783;28;20453;-53
2022/07/04 05:54:57;;;;;;;7.70;3.17;;;14.30;99.90;;;;;;5054720;28;20025;-53
2022/07/04 05:57:23;;;;;;;7.97;3.58;;;14.40;99.90;;;;;;5054664;28;20474;-53
2022/07/04 05:59:49;;;;;;;9.55;3.67;;;14.50;99.90;;;;;;5054726;28;20434;-53
2022/07/04 06:02:15;;;;;;;12.60;3.75;;;14.50;99.90;;;;;;5054166;28;20393;-53
2022/07/04 06:04:43;;;;;;;12.13;3.55;;;14.50;99.90;;;;;;5054959;28;20206;-53
2022/07/04 06:07:08;;;;;;;8.25;3.28;;;14.60;99.90;;;;;;5072011;28;20534;-53
2022/07/04 06:09:34;;;;;;;12.35;4.03;;;14.60;99.90;;;;;;5073211;28;20111;-53
2022/07/04 06:12:00;;;;;;;9.13;3.83;;;14.70;99.90;;;;;;5072612;28;20078;-53
2022/07/04 06:14:26;;;;;;;10.10;4.57;;;14.80;99.90;;;;;;5072693;28;20477;-53
2022/07/04 06:16:51;;;;;;;11.57;4.50;;;14.90;99.90;;;;;;5081097;28;20067;-53
2022/07/04 06:19:17;;;;;;;11.05;4.70;;;15.10;99.90;;;;;;5072535;28;20128;-53
2022/07/04 06:21:42;;;;;;;14.10;4.68;;;15.20;99.90;;;;;;5075046;28;20040;-53
2022/07/04 06:24:11;;;;;;;12.00;4.40;;;15.30;99.90;;;;;;5072257;28;20032;-52
2022/07/04 06:26:37;;;;;;;5.68;4.40;;;15.40;99.90;;;;;;5071589;28;20428;-53
2022/07/04 06:29:02;;;;;;;10.07;4.55;;;15.50;99.90;;;;;;5072943;28;20033;-53
2022/07/04 06:31:28;;;;;;;18.13;5.32;;;15.70;99.90;;;;;;5074804;28;20020;-53
2022/07/04 06:36:37;;;;;;;11.00;5.30;;;16.20;99.90;;;;;;5071951;28;20039;-53
2022/07/04 06:39:03;;;;;;;10.63;4.32;;;16.50;99.90;;;;;;5072715;28;20029;-53
2022/07/04 06:41:29;;;;;;;15.63;5.28;;;16.80;99.90;;;;;;5072797;28;20036;-55
2022/07/04 06:43:54;;;;;;;14.18;6.18;;;17.20;99.90;;;;;;5071684;28;20074;-54
2022/07/04 06:46:20;;;;;;;12.02;5.05;;;18.00;99.90;;;;;;5072110;28;20032;-54
2022/07/04 06:48:46;;;;;;;19.50;5.70;;;18.90;99.90;;;;;;5071277;28;20025;-55
2022/07/04 06:51:13;;;;;;;12.65;5.28;;;19.70;99.90;;;;;;5071738;28;20052;-54
2022/07/04 06:53:41;;;;;;;12.82;4.75;;;20.80;99.90;;;;;;5076494;28;20106;-55
2022/07/04 06:56:06;;;;;;;17.75;5.70;;;20.60;99.90;;;;;;5073097;28;20016;-55
2022/07/04 06:58:32;;;;;;;14.75;4.97;;;21.00;99.90;;;;;;5071945;28;20481;-55
2022/07/04 07:00:58;;;;;;;12.35;5.45;;;21.80;99.90;;;;;;5071004;28;20424;-55
2022/07/04 07:03:23;;;;;;;17.17;7.00;;;21.50;99.90;;;;;;5082274;28;20560;-55
2022/07/04 07:05:49;;;;;;;18.67;7.55;;;21.30;99.90;;;;;;5071179;28;20021;-55
2022/07/04 07:08:14;;;;;;;14.98;7.22;;;21.00;99.90;;;;;;5076629;28;20024;-55
2022/07/04 07:10:40;;;;;;;11.73;6.85;;;21.30;99.90;;;;;;5071288;28;20120;-54
2022/07/04 07:13:06;;;;;;;15.65;6.78;;;21.30;99.90;;;;;;5072994;28;20107;-55
2022/07/04 07:15:35;;;;;;;16.85;6.60;;;22.00;99.90;;;;;;5072297;28;20031;-55
2022/07/04 07:18:02;;;;;;;13.98;6.57;;;22.40;99.90;;;;;;5078071;28;20174;-55
2022/07/04 07:20:28;;;;;;;14.52;6.75;;;22.60;99.90;;;;;;5082700;28;20488;-55
2022/07/04 07:22:53;;;;;;;11.50;5.70;;;22.40;99.90;;;;;;5066051;28;20032;-55
2022/07/04 07:25:19;;;;;;;10.43;5.00;;;22.70;99.90;;;;;;5069454;28;20036;-55
2022/07/04 07:27:45;;;;;;;10.77;5.20;;;23.10;99.90;;;;;;5074692;28;20381;-55
2022/07/04 07:30:11;;;;;;;13.38;5.13;;;23.80;99.90;;;;;;5062455;28;20033;-55
2022/07/04 07:32:36;;;;;;;13.70;6.25;;;23.80;99.90;;;;;;5068850;28;20040;-55
2022/07/04 07:35:02;;;;;;;10.88;5.05;;;24.20;99.90;;;;;;5070004;28;20068;-55
2022/07/04 07:37:28;;;;;;;11.18;5.15;;;24.60;99.90;;;;;;5070459;28;20025;-55
2022/07/04 07:39:54;;;;;;;11.27;5.47;;;24.20;99.90;;;;;;5076923;28;20034;-55
2022/07/04 07:42:20;;;;;;;8.57;4.60;;;24.20;99.90;;;;;;5074123;28;20389;-55
2022/07/04 07:44:46;;;;;;;11.52;4.47;;;24.20;99.90;;;;;;5070378;28;20032;-55
2022/07/04 07:47:17;;;;;;;12.35;4.60;;;23.80;99.90;;;;;;5069404;28;20487;-55
2022/07/04 07:49:44;;;;;;;13.23;3.67;;;23.60;99.90;;;;;;5068413;28;20028;-55
2022/07/04 07:52:10;;;;;;;10.18;4.18;;;23.90;99.90;;;;;;5079038;28;20068;-55
2022/07/04 07:54:35;;;;;;;9.75;4.18;;;23.70;99.90;;;;;;5071636;28;20064;-55
2022/07/04 07:57:01;;;;;;;10.57;4.05;;;23.80;99.90;;;;;;5072732;28;20512;-55
2022/07/04 07:59:27;;;;;;;11.15;3.72;;;23.90;99.90;;;;;;5075643;28;20077;-56
2022/07/04 08:01:52;;;;;;;6.47;3.03;;;23.40;99.90;;;;;;5068997;28;20599;-55
2022/07/04 08:04:37;;;;;;;8.30;3.40;;;23.40;99.90;;;;;;5069762;28;20100;-55
2022/07/04 08:07:09;;;;;;;11.32;3.40;;;23.30;99.90;;;;;;5065750;28;20104;-55
2022/07/04 08:09:36;;;;;;;5.30;2.67;;;23.50;99.90;;;;;;5079853;28;20058;-55
2022/07/04 08:12:04;;;;;;;8.80;3.42;;;24.50;99.90;;;;;;5076278;28;20051;-55
2022/07/04 08:14:30;;;;;;;10.55;4.20;;;24.90;99.90;;;;;;5074313;28;20443;-55
2022/07/04 08:16:58;;;;;;;6.00;3.45;;;24.40;99.90;;;;;;5068713;28;20084;-56
2022/07/04 08:19:24;;;;;;;7.15;3.00;;;24.20;99.90;;;;;;5067104;28;20115;-55
2022/07/04 08:21:51;;;;;;;9.00;3.20;;;24.20;99.90;;;;;;5066920;28;20033;-55
2022/07/04 08:24:17;;;;;;;6.53;2.80;;;23.80;99.90;;;;;;5072796;28;20379;-55
2022/07/04 08:26:43;;;;;;;5.68;2.75;;;23.80;99.90;;;;;;5062707;28;20047;-55
2022/07/04 08:29:09;;;;;;;8.10;2.80;;;23.90;99.90;;;;;;5077151;28;20459;-55
2022/07/04 08:31:34;;;;;;;8.40;3.05;;;23.90;99.90;;;;;;5072699;28;20115;-55
2022/07/04 08:34:00;;;;;;;6.20;2.58;;;23.50;99.90;;;;;;5068235;28;20028;-53
2022/07/04 08:36:26;;;;;;;6.40;2.28;;;23.10;99.90;;;;;;5066297;28;20071;-53
2022/07/04 08:38:51;;;;;;;5.63;2.90;;;23.90;99.90;;;;;;5068670;28;20025;-55
2022/07/04 08:41:18;;;;;;;5.47;2.28;;;25.10;99.90;;;;;;5068979;28;20036;-55
2022/07/04 08:43:48;;;;;;;7.65;2.70;;;25.90;99.90;;;;;;5062213;28;20082;-55
2022/07/04 08:46:19;;;;;;;8.13;2.38;;;25.70;99.90;;;;;;5064617;28;20032;-55
2022/07/04 08:48:52;;;;;;;6.07;2.53;;;25.80;99.90;;;;;;5067940;28;20028;-57
2022/07/04 08:51:47;;;;;;;8.88;2.65;;;25.90;99.90;;;;;;5069393;28;20059;-55
2022/07/04 08:59:45;;;;;;;7.75;1.95;;;25.20;99.90;;;;;;5064722;28;20038;-55
2022/07/04 09:02:14;;;;;;;9.00;2.17;;;24.30;99.90;;;;;;5068554;28;20024;-56
2022/07/04 09:04:41;;;;;;;7.93;2.28;;;24.30;99.90;;;;;;5071260;28;20477;-55
2022/07/04 09:07:07;;;;;;;5.07;2.15;;;23.90;99.90;;;;;;5059915;28;20032;-55
2022/07/04 09:09:33;;;;;;;7.32;2.00;;;24.10;99.90;;;;;;5071333;28;20459;-55
2022/07/04 09:11:59;;;;;;;8.77;2.50;;;24.40;99.90;;;;;;5070547;28;20031;-55
2022/07/04 09:14:24;;;;;;;9.30;3.05;;;24.50;99.90;;;;;;5070377;28;20025;-55
2022/07/04 09:16:53;;;;;;;3.95;2.22;;;24.60;99.90;;;;;;5075732;28;20028;-55
2022/07/04 09:19:23;;;;;;;4.65;1.83;;;24.60;99.90;;;;;;5068778;28;20029;-55
2022/07/04 09:21:49;;;;;;;5.65;2.20;;;24.70;99.90;;;;;;5068977;28;20090;-55
2022/07/04 09:24:15;;;;;;;5.32;1.95;;;24.20;99.90;;;;;;5065959;28;20029;-55
2022/07/04 09:26:44;;;;;;;5.50;1.98;;;24.80;99.90;;;;;;5063242;28;20486;-55
2022/07/04 09:29:10;;;;;;;9.43;2.10;;;24.70;99.90;;;;;;5080775;28;20068;-54
2022/07/04 09:31:37;;;;;;;6.35;2.53;;;25.20;99.90;;;;;;5067772;28;20047;-55
2022/07/04 09:34:05;;;;;;;8.07;2.67;;;25.60;99.90;;;;;;5070564;28;20103;-54
2022/07/04 09:36:55;;;;;;;5.95;1.83;;;26.00;99.90;;;;;;5071230;28;20043;-55
2022/07/04 09:39:21;;;;;;;5.47;2.13;;;26.40;99.90;;;;;;5070667;28;20032;-55
2022/07/04 09:41:58;;;;;;;5.20;1.88;;;26.30;99.90;;;;;;5066313;28;20366;-55
2022/07/04 09:44:48;;;;;;;7.38;1.98;;;26.60;99.10;;;;;;5067477;28;20039;-55
2022/07/04 09:47:23;;;;;;;5.57;1.90;;;25.30;99.90;;;;;;5067176;28;20051;-55
2022/07/04 09:50:03;;;;;;;6.28;1.73;;;24.10;99.90;;;;;;5069042;28;20033;-55
2022/07/04 09:52:30;;;;;;;5.82;2.17;;;24.10;99.90;;;;;;5068786;28;20049;-55
2022/07/04 09:55:05;;;;;;;7.35;2.60;;;24.80;99.90;;;;;;5071322;28;20017;-55
2022/07/04 09:57:32;;;;;;;6.13;2.00;;;24.90;99.90;;;;;;5068540;28;20032;-55
2022/07/04 10:00:23;;;;;;;5.07;1.80;;;24.70;99.90;;;;;;5076359;28;20032;-55
2022/07/04 10:02:49;;;;;;;8.00;2.28;;;24.90;99.90;;;;;;5068808;28;20041;-55
2022/07/04 10:05:29;;;;;;;3.45;1.67;;;25.70;99.90;;;;;;5077355;28;20456;-55
2022/07/04 10:07:57;;;;;;;4.28;1.95;;;25.70;99.90;;;;;;5071392;28;20021;-55
2022/07/04 10:10:23;;;;;;;7.00;2.08;;;24.90;99.90;;;;;;5071282;28;20070;-55
2022/07/04 10:12:50;;;;;;;3.47;1.73;;;23.90;99.90;;;;;;5065738;28;20036;-55
2022/07/04 10:15:17;;;;;;;6.90;2.00;;;24.20;99.90;;;;;;5069030;28;20032;-55
2022/07/04 10:17:43;;;;;;;6.10;2.67;;;24.20;99.90;;;;;;5074852;28;20025;-55
2022/07/04 10:20:10;;;;;;;6.60;2.72;;;23.80;99.90;;;;;;5075206;28;20469;-55
2022/07/04 10:22:37;;;;;;;6.82;2.50;;;24.70;99.90;;;;;;5077800;28;20504;-55
2022/07/04 10:25:04;;;;;;;6.78;2.85;;;25.90;99.90;;;;;;5071797;28;20584;-55
2022/07/04 10:27:30;;;;;;;5.13;2.40;;;25.30;99.90;;;;;;5064091;28;20029;-55
2022/07/04 10:29:58;;;;;;;4.20;2.38;;;25.70;99.80;;;;;;5068252;28;20032;-55
2022/07/04 10:32:25;;;;;;;8.35;2.70;;;26.40;98.70;;;;;;5072177;28;20024;-56
2022/07/04 10:34:51;;;;;;;7.75;2.45;;;26.70;98.20;;;;;;5081090;28;20032;-56
2022/07/04 10:37:17;;;;;;;5.28;2.33;;;26.80;95.50;;;;;;5080116;28;20494;-56
2022/07/04 10:39:43;;;;;;;6.95;2.65;;;27.70;95.20;;;;;;5074082;28;20028;-56
2022/07/04 10:42:21;;;;;;;4.90;2.38;;;28.80;93.00;;;;;;5070145;28;20028;-55
2022/07/04 10:44:49;;;;;;;6.72;2.38;;;28.80;93.20;;;;;;5071401;28;20437;-57
2022/07/04 10:47:27;;;;;;;5.05;2.22;;;28.40;94.00;;;;;;5071453;28;20058;-56
2022/07/04 10:49:53;;;;;;;7.38;2.78;;;27.10;94.20;;;;;;5075660;28;20024;-56
2022/07/04 10:52:18;;;;;;;7.13;2.00;;;26.10;96.20;;;;;;5083033;28;20042;-56
2022/07/04 10:54:45;;;;;;;7.63;1.85;;;25.70;93.90;;;;;;5072114;28;20032;-56
2022/07/04 10:57:24;;;;;;;7.45;1.65;;;26.60;94.80;;;;;;5074087;28;20036;-56
2022/07/04 10:59:52;;;;;;;6.32;1.70;;;27.60;92.20;;;;;;5073001;28;20056;-56
2022/07/04 11:02:18;;;;;;;4.38;1.20;;;28.70;90.90;;;;;;5070413;28;20216;-56
2022/07/04 11:05:06;;;;;;;4.15;1.75;;;29.40;87.60;;;;;;5059582;28;20072;-56
2022/07/04 11:07:40;;;;;;;4.50;1.45;;;29.60;87.30;;;;;;5082465;28;20522;-56
2022/07/04 11:12:55;;;;;;;6.32;1.60;;;29.60;85.80;;;;;;5068431;28;20107;-56
2022/07/04 11:15:32;;;;;;;5.00;1.48;;;27.30;89.30;;;;;;5068549;28;20065;-56
2022/07/04 11:18:02;;;;;;;5.20;1.20;;;27.10;90.80;;;;;;5068171;28;20358;-59
2022/07/04 11:20:33;;;;;;;5.43;1.40;;;27.70;90.20;;;;;;5071263;28;20063;-59
2022/07/04 11:23:11;;;;;;;4.38;1.83;;;28.30;88.00;;;;;;5081564;28;20052;-59
2022/07/04 11:25:39;;;;;;;2.97;1.38;;;27.70;88.60;;;;;;5066165;28;20427;-59
2022/07/04 11:28:23;;;;;;;3.00;1.10;;;27.40;89.20;;;;;;5071745;28;20291;-58
2022/07/04 11:30:53;;;;;;;2.40;1.08;;;27.60;88.50;;;;;;5073460;28;20028;-59
2022/07/04 11:33:23;;;;;;;4.22;1.15;;;27.80;88.70;;;;;;5070929;28;20477;-59
2022/07/04 11:36:05;;;;;;;3.80;1.10;;;27.90;84.40;;;;;;5069559;28;20114;-60
2022/07/04 11:38:45;;;;;;;4.55;1.27;;;28.20;85.10;;;;;;5072490;28;20040;-60
2022/07/04 11:46:39;;;;;;;3.67;1.50;;;27.70;86.40;;;;;;5071799;28;20081;-59
2022/07/04 11:49:11;;;;;;;2.65;1.10;;;27.70;86.80;;;;;;5067962;28;20036;-59
2022/07/04 11:51:55;;;;;;;5.75;1.17;;;27.80;85.70;;;;;;5066254;28;20052;-59
2022/07/04 11:54:22;;;;;;;3.25;1.10;;;28.50;84.60;;;;;;5077715;28;20122;-59
2022/07/04 11:56:48;;;;;;;2.65;1.13;;;28.80;82.50;;;;;;5068055;28;20465;-59
2022/07/04 11:59:16;;;;;;;2.78;1.20;;;28.90;83.30;;;;;;5069767;28;20029;-59
2022/07/04 12:01:42;;;;;;;2.20;1.10;;;30.10;82.70;;;;;;5067927;28;20032;-59
2022/07/04 12:04:19;;;;;;;4.57;1.17;;;29.70;80.70;;;;;;5071621;28;20473;-59
2022/07/04 12:06:47;;;;;;;3.28;1.52;;;29.70;80.10;;;;;;5069443;28;20024;-59
2022/07/04 12:09:16;;;;;;;4.57;1.40;;;28.60;80.00;;;;;;5069417;28;20028;-58
2022/07/04 12:11:59;;;;;;;7.38;1.70;;;27.20;83.10;;;;;;5070079;28;20013;-58
2022/07/04 12:14:26;;;;;;;3.75;1.60;;;26.80;87.70;;;;;;5077255;28;20543;-59
2022/07/04 12:17:17;;;;;;;3.70;1.38;;;27.40;86.20;;;;;;5070461;28;20114;-58
2022/07/04 12:20:04;;;;;;;4.57;1.38;;;28.90;81.70;;;;;;5067117;28;20063;-58
2022/07/04 12:22:31;;;;;;;3.67;1.20;;;29.80;80.10;;;;;;5073204;28;20103;-58
2022/07/04 12:24:58;;;;;;;11.25;1.65;;;30.80;79.10;;;;;;5068533;28;20066;-60
2022/07/04 12:27:25;;;;;;;5.50;1.40;;;30.70;78.00;;;;;;5080583;28;20247;-59
2022/07/04 12:29:53;;;;;;;4.93;1.50;;;30.20;77.00;;;;;;5075994;28;20028;-60
2022/07/04 12:32:20;;;;;;;3.08;1.00;;;30.80;75.50;;;;;;5070368;28;20021;-60
2022/07/04 12:34:46;;;;;;;4.93;1.40;;;30.90;73.20;;;;;;5070057;28;20056;-59
2022/07/04 12:37:14;;;;;;;5.07;1.38;;;30.10;76.70;;;;;;5068362;28;20089;-60
2022/07/04 12:39:43;;;;;;;2.85;1.08;;;30.30;78.00;;;;;;5072437;28;20493;-60
2022/07/04 12:42:19;;;;;;;5.57;1.30;;;30.90;76.30;;;;;;5066388;28;20032;-59
2022/07/04 12:44:49;;;;;;;2.88;1.15;;;29.70;78.60;;;;;;5077976;28;20431;-59
2022/07/04 12:47:15;;;;;;;3.08;0.98;;;29.00;79.60;;;;;;5068894;28;20033;-59
2022/07/04 12:49:46;;;;;;;4.82;1.33;;;29.80;79.40;;;;;;5068658;28;20035;-59
2022/07/04 12:52:16;;;;;;;3.47;1.23;;;29.60;78.60;;;;;;5068642;28;20041;-58
2022/07/04 12:54:45;;;;;;;3.88;1.08;;;29.20;78.10;;;;;;5067797;28;20472;-60
2022/07/04 12:57:12;;;;;;;5.07;1.30;;;29.00;78.20;;;;;;5068805;28;20028;-59
2022/07/04 12:59:39;;;;;;;5.75;1.42;;;28.80;78.00;;;;;;5080623;28;20107;-60
2022/07/04 13:02:05;;;;;;;3.75;1.17;;;29.10;78.20;;;;;;5076528;28;20091;-59
2022/07/04 13:04:32;;;;;;;6.05;1.20;;;29.80;76.60;;;;;;5069477;28;20551;-59
2022/07/04 13:06:59;;;;;;;4.30;1.23;;;30.00;77.20;;;;;;5073774;28;20025;-59